createdAt,value
2018-02-19T00:03:36.302Z,64.31
2018-02-19T00:08:38.669Z,64.53
2018-02-19T00:13:40.366Z,64.61
2018-02-19T00:18:41.865Z,64.56
2018-02-19T00:23:43.487Z,63.53
2018-02-19T00:28:45.751Z,62.95
2018-02-19T00:33:47.295Z,63.58
2018-02-19T00:38:48.821Z,64.12
2018-02-19T00:43:50.344Z,64.36
2018-02-19T00:48:51.918Z,64.99
2018-02-19T00:53:53.362Z,65.10
2018-02-19T00:58:55.156Z,65.74
2018-02-19T01:03:56.707Z,65.35
2018-02-19T01:08:58.332Z,64.84
2018-02-19T01:13:59.975Z,64.64
2018-02-19T01:19:01.489Z,63.99
2018-02-19T01:24:03.199Z,63.38
2018-02-19T01:29:04.550Z,62.95
2018-02-19T01:34:06.849Z,62.85
2018-02-19T01:39:09.141Z,63.29
2018-02-19T01:44:10.500Z,63.48
2018-02-19T01:49:12.064Z,64.03
2018-02-19T01:54:13.613Z,64.31
2018-02-19T01:59:15.206Z,64.65
2018-02-19T02:04:16.678Z,64.83
2018-02-19T02:09:18.257Z,64.89
2018-02-19T02:14:19.653Z,64.71
2018-02-19T02:19:21.169Z,64.87
2018-02-19T02:24:22.733Z,65.15
2018-02-19T02:29:24.262Z,65.29
2018-02-19T02:34:25.809Z,65.07
2018-02-19T02:39:27.291Z,65.09
2018-02-19T02:44:29.458Z,64.76
2018-02-19T02:49:30.914Z,64.80
2018-02-19T02:54:32.336Z,64.67
2018-02-19T02:59:33.858Z,64.32
2018-02-19T03:04:35.373Z,64.37
2018-02-19T03:09:37.629Z,63.88
2018-02-19T03:14:39.146Z,63.89
2018-02-19T03:19:40.939Z,63.94
2018-02-19T03:24:42.501Z,64.09
2018-02-19T03:29:44.059Z,63.94
2018-02-19T03:34:45.610Z,63.67
2018-02-19T03:39:47.080Z,63.44
2018-02-19T03:44:48.491Z,63.67
2018-02-19T03:49:50.057Z,63.80
2018-02-19T03:54:51.915Z,63.61
2018-02-19T03:59:53.280Z,63.83
2018-02-19T04:04:54.800Z,64.24
2018-02-19T04:09:56.325Z,64.18
2018-02-19T04:14:58.591Z,64.02
2018-02-19T04:20:00.161Z,64.21
2018-02-19T04:25:01.550Z,64.41
2018-02-19T04:30:03.184Z,64.17
2018-02-19T04:35:04.730Z,64.02
2018-02-19T04:40:06.266Z,63.69
2018-02-19T04:45:13.652Z,63.53
2018-02-19T04:50:15.215Z,63.51
2018-02-19T04:55:16.627Z,63.67
2018-02-19T05:00:18.917Z,63.45
2018-02-19T05:05:20.552Z,63.30
2018-02-19T05:10:22.631Z,63.35
2018-02-19T05:15:24.759Z,63.32
2018-02-19T05:20:27.027Z,63.39
2018-02-19T05:25:28.579Z,63.28
2018-02-19T05:30:30.189Z,63.06
2018-02-19T05:35:32.437Z,62.92
2018-02-19T05:40:34.007Z,63.52
2018-02-19T05:45:36.149Z,63.71
2018-02-19T05:50:37.916Z,63.87
2018-02-19T05:55:39.637Z,63.80
2018-02-19T06:00:42.015Z,63.81
2018-02-19T06:05:43.586Z,63.85
2018-02-19T06:10:45.192Z,63.35
2018-02-19T06:15:46.835Z,63.26
2018-02-19T06:20:48.378Z,63.41
2018-02-19T06:25:49.923Z,63.95
2018-02-19T06:30:51.386Z,63.92
2018-02-19T06:35:52.841Z,63.70
2018-02-19T06:40:54.296Z,63.88
2018-02-19T06:45:55.753Z,63.82
2018-02-19T06:50:57.738Z,63.79
2018-02-19T06:55:59.315Z,63.52
2018-02-19T07:01:02.079Z,63.19
2018-02-19T07:06:04.420Z,63.32
2018-02-19T07:11:06.461Z,63.36
2018-02-19T07:16:08.012Z,63.42
2018-02-19T07:21:09.551Z,62.91
2018-02-19T07:26:11.818Z,62.35
2018-02-19T07:31:13.361Z,62.26
2018-02-19T07:36:14.928Z,62.29
2018-02-19T07:41:16.518Z,62.25
2018-02-19T07:46:18.091Z,62.23
2018-02-19T07:51:19.582Z,62.11
2018-02-19T07:56:21.126Z,61.43
2018-02-19T08:01:22.753Z,61.07
2018-02-19T08:06:24.309Z,60.58
2018-02-19T08:11:26.610Z,60.21
2018-02-19T08:16:28.126Z,59.89
2018-02-19T08:21:30.378Z,59.35
2018-02-19T08:26:31.977Z,58.70
2018-02-19T08:31:33.543Z,58.58
2018-02-19T08:36:35.024Z,57.94
2018-02-19T08:41:37.304Z,57.59
2018-02-19T08:46:38.795Z,56.85
2018-02-19T08:51:40.124Z,56.41
2018-02-19T08:56:41.787Z,56.19
2018-02-19T09:01:44.023Z,56.11
2018-02-19T09:06:46.491Z,56.35
2018-02-19T09:11:48.174Z,56.49
2018-02-19T09:16:49.778Z,56.59
2018-02-19T09:21:51.300Z,57.29
2018-02-19T09:26:52.822Z,56.70
2018-02-19T09:31:55.093Z,56.33
2018-02-19T09:36:56.660Z,56.53
2018-02-19T09:41:58.258Z,55.94
2018-02-19T09:46:59.808Z,55.52
2018-02-19T09:52:02.111Z,55.08
2018-02-19T09:57:03.681Z,54.70
2018-02-19T10:02:05.224Z,54.25
2018-02-19T10:07:07.499Z,53.78
2018-02-19T10:12:09.035Z,53.35
2018-02-19T10:17:10.606Z,52.94
2018-02-19T10:22:12.165Z,52.77
2018-02-19T10:27:13.665Z,53.01
2018-02-19T10:32:15.188Z,52.50
2018-02-19T10:37:16.583Z,52.48
2018-02-19T10:42:18.059Z,53.04
2018-02-19T10:47:19.604Z,53.03
2018-02-19T10:52:21.152Z,51.95
2018-02-19T10:57:22.595Z,51.60
2018-02-19T11:02:24.142Z,50.79
2018-02-19T11:07:25.717Z,49.54
2018-02-19T11:12:27.283Z,49.24
2018-02-19T11:17:28.813Z,49.12
2018-02-19T11:22:30.355Z,48.89
2018-02-19T11:27:31.913Z,48.91
2018-02-19T11:32:33.873Z,48.91
2018-02-19T11:37:35.390Z,48.64
2018-02-19T11:42:36.849Z,50.10
2018-02-19T11:47:38.349Z,50.90
2018-02-19T11:52:39.902Z,51.62
2018-02-19T11:57:42.220Z,52.54
2018-02-19T12:02:44.388Z,52.24
2018-02-19T12:07:45.917Z,51.46
2018-02-19T12:12:47.327Z,50.76
2018-02-19T12:17:49.626Z,49.85
2018-02-19T12:22:51.889Z,49.39
2018-02-19T12:27:53.315Z,50.41
2018-02-19T12:32:54.901Z,50.27
2018-02-19T12:37:56.310Z,50.18
2018-02-19T12:42:58.565Z,50.22
2018-02-19T12:47:59.943Z,49.89
2018-02-19T12:53:01.300Z,50.03
2018-02-19T12:58:02.861Z,50.01
2018-02-19T13:03:05.199Z,50.49
2018-02-19T13:08:06.649Z,50.08
2018-02-19T13:13:08.149Z,49.47
2018-02-19T13:18:10.047Z,48.76
2018-02-19T13:23:11.600Z,48.26
2018-02-19T13:28:13.921Z,48.04
2018-02-19T13:33:16.004Z,47.87
2018-02-19T13:38:17.502Z,48.01
2018-02-19T13:43:19.073Z,48.04
2018-02-19T13:48:20.587Z,48.07
2018-02-19T13:53:22.229Z,47.67
2018-02-19T13:58:23.737Z,47.51
2018-02-19T14:03:25.090Z,48.03
2018-02-19T14:08:27.858Z,48.35
2018-02-19T14:13:30.113Z,49.04
2018-02-19T14:18:31.674Z,48.76
2018-02-19T14:23:33.330Z,48.23
2018-02-19T14:28:34.773Z,47.96
2018-02-19T14:33:36.324Z,48.63
2018-02-19T14:38:37.795Z,49.11
2018-02-19T14:43:40.018Z,49.19
2018-02-19T14:48:41.416Z,49.03
2018-02-19T14:53:42.928Z,49.05
2018-02-19T14:58:44.709Z,49.19
2018-02-19T15:03:47.022Z,49.95
2018-02-19T15:08:48.600Z,49.75
2018-02-19T15:13:50.902Z,49.67
2018-02-19T15:18:53.190Z,50.20
2018-02-19T15:23:54.716Z,50.54
2018-02-19T15:28:56.862Z,50.76
2018-02-19T15:33:58.443Z,50.13
2018-02-19T15:38:59.970Z,50.71
2018-02-19T15:44:01.514Z,51.07
2018-02-19T15:49:03.153Z,51.09
2018-02-19T15:54:04.680Z,51.16
2018-02-19T15:59:06.923Z,50.74
2018-02-19T16:04:08.432Z,50.73
2018-02-19T16:09:09.982Z,51.18
2018-02-19T16:14:12.266Z,51.48
2018-02-19T16:19:13.792Z,52.36
2018-02-19T16:24:15.959Z,53.34
2018-02-19T16:29:17.469Z,54.25
2018-02-19T16:34:19.055Z,55.03
2018-02-19T16:39:20.882Z,55.82
2018-02-19T16:44:22.494Z,56.64
2018-02-19T16:49:23.881Z,57.50
2018-02-19T16:54:26.155Z,58.00
2018-02-19T16:59:27.741Z,58.23
2018-02-19T17:04:29.282Z,58.68
2018-02-19T17:09:31.582Z,59.26
2018-02-19T17:14:33.123Z,59.53
2018-02-19T17:19:34.732Z,60.70
2018-02-19T17:24:36.400Z,60.72
2018-02-19T17:29:37.992Z,61.08
2018-02-19T17:34:39.585Z,61.82
2018-02-19T17:39:41.123Z,62.08
2018-02-19T17:44:43.649Z,62.56
2018-02-19T17:49:45.218Z,63.15
2018-02-19T17:54:46.782Z,64.02
2018-02-19T17:59:48.393Z,63.60
2018-02-19T18:04:50.229Z,63.87
2018-02-19T18:09:51.752Z,64.12
2018-02-19T18:14:53.402Z,64.06
2018-02-19T18:19:55.279Z,64.11
2018-02-19T18:24:56.874Z,64.52
2018-02-19T18:29:58.620Z,64.69
2018-02-19T18:35:00.481Z,64.96
2018-02-19T18:40:02.077Z,65.17
2018-02-19T18:45:03.723Z,64.98
2018-02-19T18:50:05.552Z,64.72
2018-02-19T18:55:07.046Z,64.28
2018-02-19T19:00:08.682Z,64.42
2018-02-19T19:05:10.248Z,64.04
2018-02-19T19:10:30.807Z,64.16
2018-02-19T19:15:32.349Z,64.44
2018-02-19T19:20:33.912Z,64.79
2018-02-19T19:25:35.941Z,64.99
2018-02-19T19:30:37.464Z,65.25
2018-02-19T19:35:39.090Z,65.34
2018-02-19T19:40:40.661Z,65.43
2018-02-19T19:45:42.172Z,65.71
2018-02-19T19:50:43.701Z,65.99
2018-02-19T19:55:45.235Z,66.12
2018-02-19T20:00:46.767Z,65.86
2018-02-19T20:05:48.355Z,66.33
2018-02-19T20:10:50.194Z,66.65
2018-02-19T20:15:51.802Z,66.93
2018-02-19T20:20:54.147Z,67.13
2018-02-19T20:25:55.634Z,67.41
2018-02-19T20:30:57.785Z,67.37
2018-02-19T20:35:59.262Z,67.40
2018-02-19T20:41:00.866Z,67.49
2018-02-19T20:46:03.125Z,67.32
2018-02-19T20:51:04.817Z,67.02
2018-02-19T20:56:06.663Z,66.63
2018-02-19T21:01:08.253Z,66.64
2018-02-19T21:06:10.092Z,66.48
2018-02-19T21:11:11.662Z,66.35
2018-02-19T21:16:13.172Z,66.22
2018-02-19T21:21:14.756Z,66.32
2018-02-19T21:26:16.305Z,66.32
2018-02-19T21:31:17.890Z,66.53
2018-02-19T21:36:19.445Z,66.78
2018-02-19T21:41:21.023Z,67.10
2018-02-19T21:46:22.514Z,66.95
2018-02-19T21:51:24.075Z,66.81
2018-02-19T21:56:25.579Z,66.95
2018-02-19T22:01:27.018Z,67.00
2018-02-19T22:06:28.675Z,66.98
2018-02-19T22:11:30.888Z,66.99
2018-02-19T22:16:39.290Z,67.01
2018-02-19T22:21:40.846Z,67.06
2018-02-19T22:26:43.154Z,66.99
2018-02-19T22:31:45.422Z,66.96
2018-02-19T22:36:47.010Z,66.91
2018-02-19T22:41:48.546Z,67.05
2018-02-19T22:46:50.796Z,67.14
2018-02-19T22:51:52.410Z,66.88
2018-02-19T22:56:53.975Z,68.28
2018-02-19T23:01:55.646Z,69.21
2018-02-19T23:06:57.898Z,69.93
2018-02-19T23:11:59.519Z,70.02
2018-02-19T23:17:01.114Z,70.15
2018-02-19T23:22:02.562Z,69.65
2018-02-19T23:27:04.115Z,69.30
2018-02-19T23:32:05.772Z,69.16
2018-02-19T23:37:07.283Z,68.83
2018-02-19T23:42:08.836Z,68.98
2018-02-19T23:47:10.418Z,69.25
2018-02-19T23:52:12.747Z,68.85
2018-02-19T23:57:14.308Z,69.37
